KBRG/BRG METAR and TAF weather

Enter ICAO airport designator
Station Type Date Time Source
KBRG METAR 2020/11/25 21:15 UTC NOAA

KBRG 252115Z AUTO 09004KT 10SM CLR 12/M06 A3008 RMK AO2 T01211060


Station Type Date Time Source
KBRG Decoded METAR 2020/11/25 21:15 UTC NOAA

Station name not available
Nov 25, 2020 - 04:15 PM EST / 2020.11.25 2115 UTC
Wind: from the E (090 degrees) at 5 MPH (4 KT):0
Visibility: 10 mile(s):0
Sky conditions: clear
Temperature: 53.8 F (12.1 C)
Dew Point: 21.2 F (-6.0 C)
Relative Humidity: 27%
Pressure (altimeter): 30.08 in. Hg (1018 hPa)
ob: KBRG 252115Z AUTO 09004KT 10SM CLR 12/M06 A3008 RMK AO2 T01211060
cycle: 21

Station Type Date Time Source
KBRG TAF 2012/07/03 12:12 UTC NOAA

TAF SKBRG 031000Z 031212 VRB02KT 9999 FEW017 SCT080
TEMPO 0312/0317 11005KT VCTS - DZRAFEW015CB BKN070
TEMPO 0318/0323 TSRA FEW017CB BKN070
TEMPO 0400/0402 VCTS FEW020CB
TEMPO 0402/0406 -DZ SCT015CB
TEMPO 0408/0412 00000KT 5000 BCFG FEW005 TX23/0319Z TN10/0411Z

Example: see airport list